createdAt,value
2018-10-03T00:13:53.078Z,3.87
2018-10-03T00:16:22.592Z,3.72
2018-10-03T00:24:47.692Z,4.30
2018-10-03T00:27:19.249Z,3.60
2018-10-03T00:29:47.892Z,4.28
2018-10-03T00:32:16.727Z,4.55
2018-10-03T00:34:45.016Z,4.22
2018-10-03T00:37:13.673Z,4.15
2018-10-03T00:39:42.213Z,4.37
2018-10-03T00:42:10.674Z,4.42
2018-10-03T00:50:26.396Z,3.52
2018-10-03T00:52:54.846Z,4.17
2018-10-03T00:55:23.714Z,4.58
2018-10-03T00:57:52.418Z,4.12
2018-10-03T01:06:08.636Z,3.80
2018-10-03T01:08:40.240Z,3.65
2018-10-03T01:12:41.157Z,4.33
2018-10-03T01:23:53.201Z,3.72
2018-10-03T01:29:15.576Z,3.85
2018-10-03T01:46:11.147Z,3.37
2018-10-03T01:48:39.880Z,4.10
2018-10-03T01:51:08.585Z,4.25
2018-10-03T01:53:37.409Z,3.90
2018-10-03T01:56:06.053Z,3.62
2018-10-03T01:58:34.710Z,3.60
2018-10-03T02:01:04.352Z,4.08
2018-10-03T02:03:32.912Z,3.65
2018-10-03T02:06:01.638Z,3.70
2018-10-03T02:14:17.442Z,3.52
2018-10-03T02:16:46.045Z,3.90
2018-10-03T02:19:14.764Z,3.42
2018-10-03T02:21:43.355Z,3.58
2018-10-03T02:24:11.873Z,4.25
2018-10-03T02:26:40.726Z,3.70
2018-10-03T02:29:21.377Z,3.80
2018-10-03T02:31:53.180Z,4.58
2018-10-03T02:34:24.940Z,4.03
2018-10-03T02:36:54.600Z,4.45
2018-10-03T02:39:23.064Z,4.05
2018-10-03T02:44:50.398Z,3.67
2018-10-03T02:47:19.453Z,4.17
2018-10-03T02:55:40.575Z,4.40
2018-10-03T02:58:18.288Z,4.03
2018-10-03T03:12:21.257Z,4.40
2018-10-03T03:20:39.920Z,3.90
2018-10-03T03:23:08.942Z,3.65
2018-10-03T03:31:24.454Z,4.83
2018-10-03T03:39:39.961Z,4.20
2018-10-03T03:42:08.691Z,4.72
2018-10-03T03:50:35.460Z,4.05
2018-10-03T03:53:04.892Z,4.30
2018-10-03T03:55:36.438Z,4.12
2018-10-03T04:03:51.833Z,4.42
2018-10-03T04:06:25.978Z,4.22
2018-10-03T04:11:48.745Z,4.40
2018-10-03T04:14:17.648Z,5.08
2018-10-03T04:19:39.832Z,4.15
2018-10-03T04:22:08.516Z,3.95
2018-10-03T04:24:37.144Z,3.58
2018-10-03T04:27:06.109Z,3.12
2018-10-03T04:32:50.334Z,3.10
2018-10-03T04:38:12.095Z,3.35
2018-10-03T04:40:40.804Z,3.42
2018-10-03T04:43:12.595Z,3.87
2018-10-03T04:45:42.146Z,3.75
2018-10-03T04:48:14.332Z,4.20
2018-10-03T04:50:45.604Z,4.05
2018-10-03T04:53:14.821Z,3.58
2018-10-03T04:55:43.412Z,3.70
2018-10-03T04:58:13.052Z,3.92
2018-10-03T05:00:41.665Z,3.52
2018-10-03T05:03:10.248Z,3.75
2018-10-03T05:05:38.835Z,3.62
2018-10-03T05:08:07.529Z,3.65
2018-10-03T05:10:58.756Z,3.08
2018-10-03T05:13:39.087Z,3.50
2018-10-03T05:16:07.519Z,3.85
2018-10-03T05:18:37.148Z,4.05
2018-10-03T05:24:11.360Z,3.17
2018-10-03T05:35:20.960Z,3.00
2018-10-03T05:37:49.588Z,3.70
2018-10-03T05:40:18.123Z,3.35
2018-10-03T05:42:47.997Z,3.52
2018-10-03T05:45:16.400Z,3.77
2018-10-03T05:47:45.391Z,3.85
2018-10-03T05:50:13.872Z,3.58
2018-10-03T05:53:01.640Z,4.08
2018-10-03T05:58:25.485Z,3.60
2018-10-03T06:00:54.204Z,3.70
2018-10-03T06:03:22.835Z,3.65
2018-10-03T06:05:55.276Z,3.55
2018-10-03T06:08:23.518Z,3.80
2018-10-03T06:11:08.296Z,4.20
2018-10-03T06:13:37.509Z,3.27
2018-10-03T06:16:05.947Z,3.15
2018-10-03T06:18:37.775Z,3.20
2018-10-03T06:21:07.234Z,3.85
2018-10-03T06:23:36.222Z,3.60
2018-10-03T06:26:04.963Z,4.05
2018-10-03T06:28:39.292Z,3.20
2018-10-03T06:31:08.933Z,3.80
2018-10-03T06:33:38.294Z,3.80
2018-10-03T06:36:07.880Z,3.85
2018-10-03T06:38:40.053Z,3.12
2018-10-03T06:41:09.301Z,3.58
2018-10-03T06:43:38.081Z,3.50
2018-10-03T06:52:04.864Z,3.08
2018-10-03T06:54:39.142Z,3.72
2018-10-03T06:57:15.710Z,3.90
2018-10-03T06:59:44.035Z,3.65
2018-10-03T07:02:31.880Z,3.77
2018-10-03T07:05:00.217Z,3.20
2018-10-03T07:07:28.915Z,3.30
2018-10-03T07:09:57.629Z,3.92
2018-10-03T07:12:31.815Z,3.52
2018-10-03T07:15:01.003Z,3.15
2018-10-03T07:17:32.709Z,2.83
2018-10-03T07:20:02.459Z,3.58
2018-10-03T07:22:31.157Z,3.55
2018-10-03T07:25:05.276Z,3.27
2018-10-03T07:27:33.472Z,3.27
2018-10-03T07:30:02.291Z,3.10
2018-10-03T07:32:30.857Z,3.10
2018-10-03T07:40:51.188Z,3.15
2018-10-03T07:43:20.344Z,3.20
2018-10-03T07:45:52.353Z,2.75
2018-10-03T07:48:20.955Z,2.95
2018-10-03T07:53:47.878Z,3.25
2018-10-03T07:56:19.036Z,3.15
2018-10-03T08:01:43.668Z,3.67
2018-10-03T08:09:58.723Z,2.98
2018-10-03T08:15:20.599Z,2.80
2018-10-03T08:17:50.588Z,3.40
2018-10-03T08:20:22.062Z,2.58
2018-10-03T08:22:53.630Z,2.83
2018-10-03T08:28:27.828Z,3.05
2018-10-03T08:30:56.121Z,3.25
2018-10-03T08:33:24.820Z,3.15
2018-10-03T08:35:53.530Z,3.37
2018-10-03T08:38:22.060Z,3.05
2018-10-03T08:46:38.740Z,3.40
2018-10-03T08:49:07.220Z,2.92
2018-10-03T08:51:36.675Z,3.10
2018-10-03T08:54:06.425Z,3.62
2018-10-03T08:59:28.588Z,3.08
2018-10-03T09:01:57.293Z,3.17
2018-10-03T09:04:25.908Z,3.30
2018-10-03T09:06:54.948Z,3.52
2018-10-03T09:09:23.570Z,2.77
2018-10-03T09:14:45.837Z,2.90
2018-10-03T09:17:14.457Z,3.10
2018-10-03T09:19:43.395Z,2.65
2018-10-03T09:22:11.804Z,2.65
2018-10-03T09:24:41.152Z,2.75
2018-10-03T09:27:10.347Z,2.30
2018-10-03T09:29:39.083Z,2.83
2018-10-03T09:37:53.591Z,2.80
2018-10-03T09:40:22.473Z,3.10
2018-10-03T09:42:51.236Z,2.45
2018-10-03T09:45:19.841Z,3.25
2018-10-03T09:47:48.820Z,3.00
2018-10-03T09:53:10.728Z,3.22
2018-10-03T09:55:39.832Z,3.00
2018-10-03T10:03:55.382Z,3.72
2018-10-03T10:15:05.496Z,3.22
2018-10-03T10:17:33.825Z,2.70
2018-10-03T10:20:03.572Z,3.25
2018-10-03T10:22:45.176Z,2.62
2018-10-03T10:25:14.321Z,3.15
2018-10-03T10:27:43.048Z,3.33
2018-10-03T10:35:58.601Z,2.98
2018-10-03T10:38:27.142Z,3.00
2018-10-03T10:46:37.178Z,3.30
2018-10-03T10:49:17.534Z,3.10
2018-10-03T10:57:34.304Z,2.92
2018-10-03T11:00:02.836Z,2.55
2018-10-03T11:02:37.957Z,3.20
2018-10-03T11:05:07.370Z,2.70
2018-10-03T11:10:29.416Z,3.30
2018-10-03T11:12:58.152Z,3.17
2018-10-03T11:15:26.874Z,3.05
2018-10-03T11:17:56.557Z,2.90
2018-10-03T11:29:09.130Z,2.75
2018-10-03T11:34:31.188Z,2.80
2018-10-03T11:36:59.924Z,3.00
2018-10-03T11:39:28.743Z,2.80
2018-10-03T11:44:50.919Z,2.85
2018-10-03T11:47:19.849Z,2.35
2018-10-03T11:49:48.482Z,2.98
2018-10-03T11:58:03.828Z,2.67
2018-10-03T12:03:25.954Z,3.10
2018-10-03T12:08:48.100Z,3.22
2018-10-03T12:20:02.314Z,2.95
2018-10-03T12:22:31.204Z,3.35
2018-10-03T12:25:00.049Z,2.87
2018-10-03T12:27:28.676Z,2.80
2018-10-03T12:30:11.273Z,2.72
2018-10-03T12:32:39.781Z,2.80
2018-10-03T12:35:08.421Z,2.87
2018-10-03T12:37:37.440Z,3.00
2018-10-03T12:40:06.401Z,2.70
2018-10-03T12:42:35.149Z,2.90
2018-10-03T12:45:03.643Z,2.87
2018-10-03T12:47:32.168Z,2.60
2018-10-03T12:50:20.013Z,3.10
2018-10-03T12:58:35.433Z,2.77
2018-10-03T13:07:03.211Z,3.08
2018-10-03T13:15:25.749Z,3.02
2018-10-03T13:17:54.867Z,2.87
2018-10-03T13:29:04.072Z,3.08
2018-10-03T13:31:32.673Z,2.83
2018-10-03T13:34:01.322Z,3.12
2018-10-03T13:36:29.892Z,3.47
2018-10-03T13:39:20.742Z,3.22
2018-10-03T13:44:43.855Z,3.00
2018-10-03T13:47:12.064Z,3.45
2018-10-03T13:52:34.566Z,2.87
2018-10-03T13:57:57.957Z,2.85
2018-10-03T14:00:31.707Z,2.37
2018-10-03T14:03:00.672Z,3.30
2018-10-03T14:05:32.324Z,3.02
2018-10-03T14:08:01.091Z,2.75
2018-10-03T14:22:03.295Z,2.95
2018-10-03T14:24:32.110Z,2.83
2018-10-03T14:27:00.925Z,3.00
2018-10-03T14:29:29.410Z,2.65
2018-10-03T14:34:51.443Z,2.58
2018-10-03T14:40:13.550Z,3.10
2018-10-03T14:42:45.312Z,2.65
2018-10-03T14:45:14.549Z,3.10
2018-10-03T14:47:43.785Z,3.00
2018-10-03T14:50:13.697Z,3.08
2018-10-03T14:52:42.090Z,2.33
2018-10-03T14:55:10.601Z,2.80
2018-10-03T14:57:39.492Z,2.75
2018-10-03T15:00:13.763Z,3.02
2018-10-03T15:05:41.154Z,2.95
2018-10-03T15:11:03.477Z,3.55
2018-10-03T15:13:41.481Z,2.95
2018-10-03T15:19:04.489Z,3.17
2018-10-03T15:21:39.289Z,2.80
2018-10-03T15:24:10.504Z,2.85
2018-10-03T15:29:48.459Z,2.85
2018-10-03T15:32:16.972Z,2.67
2018-10-03T15:34:46.718Z,3.33
2018-10-03T15:37:16.540Z,3.72
2018-10-03T15:39:48.330Z,2.90
2018-10-03T15:42:17.108Z,2.40
2018-10-03T15:44:45.498Z,2.70
2018-10-03T15:47:14.040Z,2.80
2018-10-03T15:55:29.709Z,2.65
2018-10-03T16:06:38.719Z,3.37
2018-10-03T16:09:10.809Z,3.27
2018-10-03T16:11:42.267Z,3.37
2018-10-03T16:14:22.630Z,2.98
2018-10-03T16:17:10.413Z,2.87
2018-10-03T16:25:24.584Z,3.58
2018-10-03T16:33:40.113Z,3.17
2018-10-03T16:36:09.855Z,28.45
2018-10-03T16:38:41.517Z,90.07
2018-10-03T16:41:10.050Z,13.83
2018-10-03T16:43:38.720Z,72.80
2018-10-03T16:46:08.300Z,14.28
2018-10-03T16:48:37.046Z,130.55
2018-10-03T16:51:05.992Z,124.42
2018-10-03T16:53:34.623Z,54.75
2018-10-03T16:58:56.689Z,67.05
2018-10-03T17:01:25.141Z,116.70
2018-10-03T17:03:53.750Z,138.65
2018-10-03T17:06:44.613Z,42.03
2018-10-03T17:12:05.953Z,15.25
2018-10-03T17:14:36.737Z,16.50
2018-10-03T17:17:05.433Z,12.20
2018-10-03T17:19:34.321Z,7.60
2018-10-03T17:22:03.556Z,13.20
2018-10-03T17:24:34.913Z,4.45
2018-10-03T17:27:03.477Z,3.25
2018-10-03T17:29:32.197Z,2.75
2018-10-03T17:34:54.544Z,3.90
2018-10-03T17:37:24.177Z,3.50
2018-10-03T17:42:47.783Z,2.83
2018-10-03T17:48:21.420Z,3.58
2018-10-03T17:51:02.590Z,3.30
2018-10-03T17:53:36.056Z,3.87
2018-10-03T17:58:58.249Z,3.05
2018-10-03T18:01:28.251Z,2.87
2018-10-03T18:03:56.556Z,3.30
2018-10-03T18:06:25.053Z,3.10
2018-10-03T18:08:53.967Z,4.97
2018-10-03T18:11:22.993Z,4.28
2018-10-03T18:14:01.504Z,3.80
2018-10-03T18:16:30.450Z,4.00
2018-10-03T18:21:52.639Z,3.62
2018-10-03T18:27:15.213Z,3.12
2018-10-03T18:29:43.750Z,3.05
2018-10-03T18:32:13.471Z,4.05
2018-10-03T18:40:29.430Z,3.15
2018-10-03T18:48:30.417Z,2.70
2018-10-03T18:59:20.900Z,2.45
2018-10-03T19:01:49.572Z,3.55
2018-10-03T19:04:18.112Z,3.30
2018-10-03T19:06:47.449Z,2.47
2018-10-03T19:09:15.915Z,3.35
2018-10-03T19:37:02.440Z,8.88
2018-10-03T19:39:31.941Z,6.62
2018-10-03T19:45:00.025Z,5.47
2018-10-03T19:47:29.164Z,4.85
2018-10-03T19:50:15.013Z,5.08
2018-10-03T19:58:41.602Z,4.53
2018-10-03T20:05:40.440Z,5.90
2018-10-03T20:08:08.667Z,6.30
2018-10-03T20:19:17.797Z,5.50
2018-10-03T20:21:46.221Z,4.45
2018-10-03T20:24:15.773Z,4.70
2018-10-03T20:26:44.591Z,5.28
2018-10-03T20:29:13.229Z,7.78
2018-10-03T20:31:44.868Z,6.75
2018-10-03T20:37:24.025Z,10.20
2018-10-03T20:39:52.964Z,11.15
2018-10-03T20:45:15.349Z,11.05
2018-10-03T20:49:09.913Z,8.55
2018-10-03T20:58:07.756Z,10.38
2018-10-03T21:00:36.542Z,7.00
2018-10-03T21:03:05.376Z,6.50
2018-10-03T21:05:34.140Z,7.10
2018-10-03T21:16:54.714Z,7.83
2018-10-03T21:19:23.325Z,7.58
2018-10-03T21:21:58.506Z,6.87
2018-10-03T21:24:26.780Z,5.85
2018-10-03T21:27:08.692Z,6.35
2018-10-03T21:29:37.214Z,8.50
2018-10-03T21:32:11.742Z,7.33
2018-10-03T21:34:40.550Z,7.03
2018-10-03T21:37:24.778Z,6.95
2018-10-03T21:39:53.014Z,7.60
2018-10-03T21:48:08.599Z,7.50
2018-10-03T21:50:37.236Z,6.83
2018-10-03T21:53:11.423Z,6.70
2018-10-03T21:55:40.564Z,6.20
2018-10-03T21:58:09.265Z,6.60
2018-10-03T22:06:11.700Z,6.83
2018-10-03T22:08:40.306Z,6.08
2018-10-03T22:11:09.048Z,6.55
2018-10-03T22:16:31.452Z,5.58
2018-10-03T22:19:01.117Z,7.15
2018-10-03T22:21:29.633Z,6.53
2018-10-03T22:23:58.368Z,6.55
2018-10-03T22:26:27.383Z,6.78
2018-10-03T22:32:07.480Z,6.33
2018-10-03T22:37:32.185Z,6.83
2018-10-03T22:40:00.840Z,6.95
2018-10-03T22:45:23.116Z,6.95
2018-10-03T22:47:51.561Z,7.75
2018-10-03T22:50:20.182Z,7.60
2018-10-03T22:52:48.897Z,7.20
2018-10-03T22:55:17.612Z,7.40
2018-10-03T23:03:33.592Z,8.03
2018-10-03T23:06:02.039Z,7.87
2018-10-03T23:11:24.129Z,8.10
2018-10-03T23:13:52.765Z,7.87
2018-10-03T23:16:21.496Z,8.13
2018-10-03T23:19:03.289Z,8.15
2018-10-03T23:21:31.699Z,7.95
2018-10-03T23:24:07.835Z,8.20
2018-10-03T23:26:41.409Z,7.92
2018-10-03T23:29:10.570Z,7.92
2018-10-03T23:31:39.012Z,7.58
2018-10-03T23:34:07.808Z,8.35
2018-10-03T23:42:24.778Z,8.63
2018-10-03T23:44:53.093Z,7.72
2018-10-03T23:47:21.798Z,7.58
2018-10-03T23:49:52.065Z,8.35
2018-10-03T23:52:21.300Z,7.67
2018-10-03T23:54:49.940Z,7.65
2018-10-03T23:57:18.611Z,7.87
